SWA3297 KMCO-KHOU
Flight info
| Callsign | SWA3297 |
|---|---|
| Flight time | 2h 5m |
| Altitude | 40000 |
| Route | OSPRY1 OSPRY GDUNN CHIVE CODGR CIGAR Y290 LEV BAYYY5 |
| Aircraft | B737/M-SADE2E3GIJ4RWZ/LB1D1 |
Departure
| Time | 2026-04-24 19:25 |
|---|---|
| Airport | Orlando International Airport (KMCO) |
Arrival
| Time | 2026-04-24 21:30 |
|---|---|
| Airport | William P. Hobby Airport (KHOU) |
| Time | Latitude | Longitude | Altitude | Speed | Heading |
|---|---|---|---|---|---|
| 2026-04-24 18:54 | 28.42517 | -81.30016 | 102 ft | 0 kts | 357° |
| 2026-04-24 19:14 | 28.42511 | -81.30016 | 102 ft | 4 kts | 7° |
| 2026-04-24 19:15 | 28.42488 | -81.30026 | 102 ft | 4 kts | 21° |
| 2026-04-24 19:15 | 28.42464 | -81.30039 | 102 ft | 4 kts | 35° |
| 2026-04-24 19:15 | 28.42445 | -81.30059 | 102 ft | 4 kts | 60° |
| 2026-04-24 19:15 | 28.42438 | -81.30086 | 102 ft | 3 kts | 101° |
| 2026-04-24 19:16 | 28.42439 | -81.30094 | 102 ft | 0 kts | 103° |
| 2026-04-24 19:16 | 28.42439 | -81.30095 | 102 ft | 0 kts | 103° |
| 2026-04-24 19:18 | 28.42439 | -81.30093 | 102 ft | 1 kts | 103° |
| 2026-04-24 19:18 | 28.42434 | -81.30071 | 102 ft | 5 kts | 101° |
| 2026-04-24 19:19 | 28.42433 | -81.30014 | 102 ft | 9 kts | 83° |
| 2026-04-24 19:19 | 28.42458 | -81.29947 | 102 ft | 9 kts | 53° |
| 2026-04-24 19:19 | 28.42506 | -81.29900 | 102 ft | 9 kts | 29° |
| 2026-04-24 19:19 | 28.42565 | -81.29876 | 101 ft | 9 kts | 19° |
| 2026-04-24 19:20 | 28.42598 | -81.29825 | 102 ft | 8 kts | 85° |
| 2026-04-24 19:20 | 28.42597 | -81.29759 | 101 ft | 8 kts | 91° |
| 2026-04-24 19:20 | 28.42623 | -81.29708 | 100 ft | 8 kts | 22° |
| 2026-04-24 19:20 | 28.42678 | -81.29704 | 100 ft | 8 kts | 360° |
| 2026-04-24 19:21 | 28.42735 | -81.29704 | 101 ft | 9 kts | 0° |
| 2026-04-24 19:21 | 28.42810 | -81.29705 | 103 ft | 12 kts | 359° |
| 2026-04-24 19:21 | 28.42905 | -81.29706 | 104 ft | 15 kts | 360° |
| 2026-04-24 19:21 | 28.43027 | -81.29707 | 103 ft | 20 kts | 360° |
| 2026-04-24 19:22 | 28.43123 | -81.29708 | 103 ft | 20 kts | 359° |
| 2026-04-24 19:22 | 28.43306 | -81.29710 | 106 ft | 20 kts | 359° |
| 2026-04-24 19:22 | 28.43440 | -81.29711 | 104 ft | 19 kts | 359° |
| 2026-04-24 19:22 | 28.43518 | -81.29708 | 102 ft | 5 kts | 15° |
| 2026-04-24 19:23 | 28.43545 | -81.29689 | 102 ft | 5 kts | 50° |
| 2026-04-24 19:23 | 28.43551 | -81.29654 | 102 ft | 5 kts | 90° |
| 2026-04-24 19:23 | 28.43550 | -81.29610 | 101 ft | 6 kts | 105° |
| 2026-04-24 19:23 | 28.43512 | -81.29588 | 104 ft | 9 kts | 172° |
| 2026-04-24 19:24 | 28.43387 | -81.29586 | 106 ft | 40 kts | 179° |
| 2026-04-24 19:24 | 28.42863 | -81.29581 | 104 ft | 109 kts | 179° |
| 2026-04-24 19:24 | 28.41910 | -81.29568 | 106 ft | 162 kts | 176° |
| 2026-04-24 19:24 | 28.40680 | -81.29556 | 398 ft | 183 kts | 179° |
| 2026-04-24 19:25 | 28.39381 | -81.29560 | 1061 ft | 192 kts | 182° |
| 2026-04-24 19:25 | 28.38052 | -81.29826 | 1754 ft | 197 kts | 201° |
| 2026-04-24 19:25 | 28.36925 | -81.30725 | 2402 ft | 204 kts | 230° |
| 2026-04-24 19:25 | 28.36180 | -81.32145 | 2918 ft | 215 kts | 243° |
| 2026-04-24 19:26 | 28.35515 | -81.33717 | 3447 ft | 226 kts | 242° |
| 2026-04-24 19:26 | 28.34702 | -81.35342 | 3788 ft | 249 kts | 235° |
| 2026-04-24 19:26 | 28.33583 | -81.36943 | 4266 ft | 264 kts | 229° |
| 2026-04-24 19:26 | 28.32727 | -81.38781 | 5088 ft | 270 kts | 259° |
| 2026-04-24 19:27 | 28.32559 | -81.40892 | 6270 ft | 266 kts | 266° |
| 2026-04-24 19:27 | 28.32459 | -81.43025 | 7156 ft | 275 kts | 267° |
| 2026-04-24 19:27 | 28.32358 | -81.45189 | 8239 ft | 274 kts | 267° |
| 2026-04-24 19:27 | 28.32249 | -81.47360 | 9243 ft | 278 kts | 267° |
| 2026-04-24 19:28 | 28.32128 | -81.49560 | 10208 ft | 281 kts | 267° |
| 2026-04-24 19:28 | 28.31995 | -81.51841 | 10736 ft | 301 kts | 267° |
| 2026-04-24 19:28 | 28.31846 | -81.54291 | 10939 ft | 329 kts | 266° |
| 2026-04-24 19:28 | 28.31675 | -81.56988 | 11135 ft | 356 kts | 266° |
| 2026-04-24 19:29 | 28.31294 | -81.62819 | 12243 ft | 378 kts | 266° |
| 2026-04-24 19:29 | 28.31093 | -81.65807 | 13078 ft | 381 kts | 267° |
| 2026-04-24 19:29 | 28.30891 | -81.68819 | 13854 ft | 385 kts | 267° |
| 2026-04-24 19:30 | 28.30687 | -81.71855 | 14515 ft | 388 kts | 267° |
| 2026-04-24 19:30 | 28.30480 | -81.74924 | 15183 ft | 392 kts | 267° |
| 2026-04-24 19:30 | 28.30270 | -81.78021 | 15860 ft | 395 kts | 267° |
| 2026-04-24 19:30 | 28.30058 | -81.81142 | 16521 ft | 398 kts | 267° |
| 2026-04-24 19:31 | 28.29844 | -81.84286 | 17163 ft | 401 kts | 267° |
| 2026-04-24 19:31 | 28.29626 | -81.87456 | 17750 ft | 405 kts | 267° |
| 2026-04-24 19:31 | 28.29322 | -81.90651 | 18353 ft | 410 kts | 262° |
| 2026-04-24 19:31 | 28.28772 | -81.93841 | 18903 ft | 413 kts | 260° |
| 2026-04-24 19:32 | 28.28173 | -81.97030 | 19505 ft | 414 kts | 259° |
| 2026-04-24 19:32 | 28.27558 | -82.00229 | 20018 ft | 417 kts | 259° |
| 2026-04-24 19:32 | 28.26935 | -82.03456 | 20512 ft | 420 kts | 259° |
| 2026-04-24 19:32 | 28.26306 | -82.06704 | 21012 ft | 423 kts | 259° |
| 2026-04-24 19:33 | 28.25674 | -82.09972 | 21495 ft | 426 kts | 259° |
| 2026-04-24 19:33 | 28.25039 | -82.13263 | 21963 ft | 429 kts | 259° |
| 2026-04-24 19:33 | 28.24399 | -82.16581 | 22442 ft | 432 kts | 259° |
| 2026-04-24 19:33 | 28.23755 | -82.19916 | 22885 ft | 435 kts | 259° |
| 2026-04-24 19:34 | 28.23106 | -82.23275 | 23326 ft | 437 kts | 259° |
| 2026-04-24 19:34 | 28.22454 | -82.26654 | 23714 ft | 440 kts | 259° |
| 2026-04-24 19:34 | 28.21796 | -82.30055 | 24083 ft | 442 kts | 259° |
| 2026-04-24 19:34 | 28.21135 | -82.33466 | 24439 ft | 444 kts | 259° |
| 2026-04-24 19:35 | 28.20472 | -82.36887 | 24802 ft | 446 kts | 259° |
| 2026-04-24 19:35 | 28.19804 | -82.40330 | 25146 ft | 448 kts | 259° |
| 2026-04-24 19:35 | 28.19133 | -82.43781 | 25484 ft | 450 kts | 259° |
| 2026-04-24 19:35 | 28.18459 | -82.47245 | 25825 ft | 451 kts | 259° |
| 2026-04-24 19:36 | 28.17781 | -82.50724 | 26176 ft | 453 kts | 259° |
| 2026-04-24 19:36 | 28.17097 | -82.54223 | 26516 ft | 455 kts | 259° |
| 2026-04-24 19:36 | 28.16411 | -82.57728 | 26842 ft | 457 kts | 259° |
| 2026-04-24 19:36 | 28.15722 | -82.61245 | 27185 ft | 458 kts | 259° |
| 2026-04-24 19:37 | 28.15029 | -82.64779 | 27538 ft | 459 kts | 260° |
| 2026-04-24 19:37 | 28.14337 | -82.68301 | 27963 ft | 458 kts | 260° |
| 2026-04-24 19:37 | 28.13645 | -82.71812 | 28486 ft | 455 kts | 260° |
| 2026-04-24 19:37 | 28.12956 | -82.75303 | 29031 ft | 453 kts | 260° |
| 2026-04-24 19:38 | 28.12270 | -82.78774 | 29583 ft | 450 kts | 261° |
| 2026-04-24 19:38 | 28.11588 | -82.82221 | 30137 ft | 447 kts | 261° |
| 2026-04-24 19:38 | 28.10911 | -82.85647 | 30609 ft | 445 kts | 261° |
| 2026-04-24 19:38 | 28.10235 | -82.89059 | 31073 ft | 442 kts | 261° |
| 2026-04-24 19:39 | 28.09562 | -82.92450 | 31514 ft | 441 kts | 261° |
| 2026-04-24 19:39 | 28.08892 | -82.95825 | 31975 ft | 438 kts | 261° |
| 2026-04-24 19:39 | 28.08225 | -82.99183 | 32449 ft | 436 kts | 261° |
| 2026-04-24 19:39 | 28.07561 | -83.02519 | 32906 ft | 433 kts | 261° |
| 2026-04-24 19:40 | 28.06898 | -83.05844 | 33303 ft | 432 kts | 261° |
| 2026-04-24 19:40 | 28.06247 | -83.09107 | 33705 ft | 430 kts | 261° |
| 2026-04-24 19:40 | 28.05588 | -83.12402 | 34107 ft | 428 kts | 261° |
| 2026-04-24 19:40 | 28.04930 | -83.15685 | 34440 ft | 427 kts | 261° |
| 2026-04-24 19:41 | 28.04276 | -83.18951 | 34779 ft | 424 kts | 262° |
| 2026-04-24 19:41 | 28.03623 | -83.22201 | 35130 ft | 422 kts | 262° |
| 2026-04-24 19:41 | 28.02972 | -83.25439 | 35395 ft | 422 kts | 262° |
| 2026-04-24 19:41 | 28.02320 | -83.28682 | 35636 ft | 423 kts | 262° |
| 2026-04-24 19:42 | 28.01667 | -83.31924 | 35919 ft | 422 kts | 262° |
| 2026-04-24 19:42 | 28.01015 | -83.35156 | 36212 ft | 421 kts | 262° |
| 2026-04-24 19:42 | 28.00364 | -83.38377 | 36485 ft | 420 kts | 262° |
| 2026-04-24 19:42 | 27.99713 | -83.41594 | 36727 ft | 420 kts | 262° |
| 2026-04-24 19:43 | 27.99061 | -83.44812 | 36970 ft | 419 kts | 262° |
| 2026-04-24 19:43 | 27.98410 | -83.48019 | 37247 ft | 418 kts | 262° |
| 2026-04-24 19:43 | 27.97760 | -83.51221 | 37491 ft | 417 kts | 262° |
| 2026-04-24 19:43 | 27.97111 | -83.54417 | 37711 ft | 416 kts | 262° |
| 2026-04-24 19:44 | 27.96674 | -83.56569 | 37937 ft | 415 kts | 262° |
| 2026-04-24 19:44 | 27.96028 | -83.59739 | 38241 ft | 413 kts | 262° |
| 2026-04-24 19:44 | 27.95383 | -83.62899 | 38437 ft | 413 kts | 262° |
| 2026-04-24 19:44 | 27.94745 | -83.66024 | 38607 ft | 413 kts | 262° |
| 2026-04-24 19:45 | 27.94098 | -83.69186 | 38792 ft | 413 kts | 262° |
| 2026-04-24 19:45 | 27.93451 | -83.72347 | 38957 ft | 412 kts | 262° |
| 2026-04-24 19:45 | 27.92803 | -83.75506 | 39091 ft | 413 kts | 262° |
| 2026-04-24 19:45 | 27.92154 | -83.78670 | 39252 ft | 412 kts | 263° |
| 2026-04-24 19:46 | 27.91508 | -83.81816 | 39495 ft | 409 kts | 262° |
| 2026-04-24 19:46 | 27.90863 | -83.84947 | 39614 ft | 410 kts | 263° |
| 2026-04-24 19:46 | 27.90215 | -83.88096 | 39685 ft | 412 kts | 262° |
| 2026-04-24 19:46 | 27.89564 | -83.91251 | 39799 ft | 412 kts | 262° |
| 2026-04-24 19:47 | 27.88786 | -83.95010 | 39961 ft | 406 kts | 263° |
| 2026-04-24 19:47 | 27.87499 | -84.01225 | 39983 ft | 407 kts | 263° |
| 2026-04-24 19:48 | 27.86206 | -84.07470 | 39986 ft | 410 kts | 263° |
| 2026-04-24 19:48 | 27.84244 | -84.16904 | 39983 ft | 412 kts | 262° |
| 2026-04-24 19:49 | 27.81608 | -84.29513 | 39968 ft | 412 kts | 262° |
| 2026-04-24 19:50 | 27.78985 | -84.41994 | 39973 ft | 408 kts | 262° |
| 2026-04-24 19:51 | 27.77022 | -84.51307 | 39978 ft | 405 kts | 262° |
| 2026-04-24 19:52 | 27.75062 | -84.60575 | 39977 ft | 404 kts | 262° |
| 2026-04-24 19:52 | 27.73755 | -84.66733 | 39978 ft | 403 kts | 262° |
| 2026-04-24 19:53 | 27.72447 | -84.72883 | 39967 ft | 402 kts | 262° |
| 2026-04-24 19:54 | 27.70485 | -84.82085 | 39980 ft | 402 kts | 262° |
| 2026-04-24 19:54 | 27.69174 | -84.88215 | 39982 ft | 402 kts | 262° |
| 2026-04-24 19:55 | 27.68295 | -84.92318 | 39981 ft | 402 kts | 262° |
| 2026-04-24 19:55 | 27.66541 | -85.00483 | 39966 ft | 403 kts | 262° |
| 2026-04-24 19:56 | 27.65218 | -85.06627 | 39955 ft | 403 kts | 263° |
| 2026-04-24 19:56 | 27.63892 | -85.12768 | 39962 ft | 403 kts | 263° |
| 2026-04-24 19:57 | 27.62563 | -85.18911 | 39969 ft | 403 kts | 263° |
| 2026-04-24 19:57 | 27.61233 | -85.25050 | 39963 ft | 403 kts | 262° |
| 2026-04-24 19:58 | 27.60062 | -85.31208 | 39964 ft | 397 kts | 271° |
| 2026-04-24 19:58 | 27.60281 | -85.37301 | 39962 ft | 390 kts | 282° |
| 2026-04-24 19:59 | 27.61741 | -85.43130 | 39954 ft | 386 kts | 291° |
| 2026-04-24 19:59 | 27.63492 | -85.48856 | 39958 ft | 386 kts | 291° |
| 2026-04-24 20:00 | 27.65238 | -85.54585 | 39965 ft | 386 kts | 291° |
| 2026-04-24 20:00 | 27.66962 | -85.60318 | 39963 ft | 386 kts | 290° |
| 2026-04-24 20:01 | 27.68677 | -85.66055 | 39968 ft | 386 kts | 290° |
| 2026-04-24 20:01 | 27.70389 | -85.71803 | 39969 ft | 387 kts | 290° |
| 2026-04-24 20:02 | 27.71811 | -85.76585 | 39963 ft | 387 kts | 290° |
| 2026-04-24 20:02 | 27.73808 | -85.83315 | 39961 ft | 387 kts | 290° |
| 2026-04-24 20:03 | 27.75227 | -85.88102 | 39961 ft | 387 kts | 290° |
| 2026-04-24 20:03 | 27.76932 | -85.93865 | 39957 ft | 387 kts | 290° |
| 2026-04-24 20:04 | 27.78635 | -85.99632 | 39964 ft | 387 kts | 290° |
| 2026-04-24 20:04 | 27.80336 | -86.05400 | 39962 ft | 387 kts | 290° |
| 2026-04-24 20:05 | 27.82035 | -86.11172 | 39958 ft | 387 kts | 290° |
| 2026-04-24 20:05 | 27.83732 | -86.16949 | 39964 ft | 387 kts | 290° |
| 2026-04-24 20:06 | 27.85423 | -86.22714 | 39954 ft | 386 kts | 290° |
| 2026-04-24 20:06 | 27.87105 | -86.28457 | 39956 ft | 384 kts | 290° |
| 2026-04-24 20:07 | 27.88497 | -86.33220 | 39956 ft | 384 kts | 290° |
| 2026-04-24 20:07 | 27.90449 | -86.39909 | 39949 ft | 383 kts | 290° |
| 2026-04-24 20:08 | 27.92114 | -86.45623 | 39951 ft | 383 kts | 290° |
| 2026-04-24 20:08 | 27.93776 | -86.51338 | 39954 ft | 382 kts | 290° |
| 2026-04-24 20:09 | 27.95434 | -86.57051 | 39947 ft | 382 kts | 290° |
| 2026-04-24 20:09 | 27.97088 | -86.62758 | 39949 ft | 381 kts | 290° |
| 2026-04-24 20:10 | 27.98736 | -86.68456 | 39952 ft | 381 kts | 290° |
| 2026-04-24 20:10 | 28.00380 | -86.74147 | 39954 ft | 380 kts | 290° |
| 2026-04-24 20:11 | 28.02039 | -86.79831 | 39950 ft | 380 kts | 290° |
| 2026-04-24 20:11 | 28.03732 | -86.85502 | 39964 ft | 381 kts | 290° |
| 2026-04-24 20:12 | 28.05431 | -86.91191 | 39956 ft | 382 kts | 290° |
| 2026-04-24 20:12 | 28.07128 | -86.96900 | 39948 ft | 382 kts | 290° |
| 2026-04-24 20:13 | 28.08819 | -87.02606 | 39943 ft | 382 kts | 290° |
| 2026-04-24 20:13 | 28.10504 | -87.08304 | 39946 ft | 381 kts | 290° |
| 2026-04-24 20:14 | 28.12186 | -87.14002 | 39947 ft | 381 kts | 290° |
| 2026-04-24 20:14 | 28.13864 | -87.19695 | 39946 ft | 381 kts | 290° |
| 2026-04-24 20:15 | 28.15527 | -87.25349 | 39948 ft | 381 kts | 290° |
| 2026-04-24 20:15 | 28.17201 | -87.31045 | 39949 ft | 381 kts | 290° |
| 2026-04-24 20:16 | 28.18869 | -87.36734 | 39947 ft | 380 kts | 290° |
| 2026-04-24 20:16 | 28.20534 | -87.42424 | 39948 ft | 380 kts | 290° |
| 2026-04-24 20:17 | 28.22194 | -87.48106 | 39946 ft | 380 kts | 290° |
| 2026-04-24 20:17 | 28.24682 | -87.56637 | 39944 ft | 380 kts | 290° |
| 2026-04-24 20:18 | 28.26337 | -87.62325 | 39945 ft | 380 kts | 290° |
| 2026-04-24 20:18 | 28.27989 | -87.68014 | 39946 ft | 380 kts | 290° |
| 2026-04-24 20:19 | 28.29638 | -87.73704 | 39948 ft | 379 kts | 290° |
| 2026-04-24 20:19 | 28.31280 | -87.79378 | 39941 ft | 378 kts | 290° |
| 2026-04-24 20:20 | 28.32918 | -87.85046 | 39943 ft | 377 kts | 290° |
| 2026-04-24 20:20 | 28.34549 | -87.90702 | 39939 ft | 377 kts | 290° |
| 2026-04-24 20:21 | 28.36178 | -87.96360 | 39950 ft | 378 kts | 290° |
| 2026-04-24 20:21 | 28.37810 | -88.02035 | 39943 ft | 378 kts | 290° |
| 2026-04-24 20:22 | 28.39780 | -88.07561 | 39945 ft | 378 kts | 295° |
| 2026-04-24 20:22 | 28.41942 | -88.13002 | 39934 ft | 378 kts | 295° |
| 2026-04-24 20:23 | 28.44101 | -88.18446 | 39940 ft | 378 kts | 295° |
| 2026-04-24 20:23 | 28.46234 | -88.23865 | 39941 ft | 378 kts | 295° |
| 2026-04-24 20:24 | 28.48388 | -88.29363 | 39940 ft | 378 kts | 294° |
| 2026-04-24 20:24 | 28.50526 | -88.34832 | 39937 ft | 379 kts | 294° |
| 2026-04-24 20:25 | 28.52661 | -88.40305 | 39933 ft | 379 kts | 294° |
| 2026-04-24 20:25 | 28.54796 | -88.45784 | 39939 ft | 379 kts | 294° |
| 2026-04-24 20:26 | 28.56911 | -88.51222 | 39925 ft | 378 kts | 294° |
| 2026-04-24 20:26 | 28.59037 | -88.56695 | 39932 ft | 378 kts | 294° |
| 2026-04-24 20:27 | 28.61158 | -88.62162 | 39932 ft | 378 kts | 294° |
| 2026-04-24 20:27 | 28.63275 | -88.67628 | 39932 ft | 377 kts | 294° |
| 2026-04-24 20:28 | 28.65390 | -88.73094 | 39933 ft | 377 kts | 294° |
| 2026-04-24 20:28 | 28.67505 | -88.78571 | 39941 ft | 378 kts | 294° |
| 2026-04-24 20:29 | 28.69626 | -88.84062 | 39936 ft | 379 kts | 294° |
| 2026-04-24 20:29 | 28.71739 | -88.89552 | 39934 ft | 378 kts | 294° |
| 2026-04-24 20:30 | 28.73849 | -88.95043 | 39931 ft | 378 kts | 294° |
| 2026-04-24 20:30 | 28.75955 | -89.00527 | 39931 ft | 378 kts | 294° |
| 2026-04-24 20:31 | 28.78056 | -89.06008 | 39929 ft | 377 kts | 294° |
| 2026-04-24 20:31 | 28.80156 | -89.11490 | 39929 ft | 377 kts | 294° |
| 2026-04-24 20:32 | 28.82254 | -89.16978 | 39929 ft | 378 kts | 294° |
| 2026-04-24 20:32 | 28.84346 | -89.22459 | 39929 ft | 377 kts | 294° |
| 2026-04-24 20:33 | 28.86183 | -89.28045 | 39924 ft | 377 kts | 285° |
| 2026-04-24 20:33 | 28.86979 | -89.33979 | 39925 ft | 379 kts | 281° |
| 2026-04-24 20:34 | 28.87670 | -89.39941 | 39923 ft | 379 kts | 281° |
| 2026-04-24 20:34 | 28.88369 | -89.45902 | 39924 ft | 379 kts | 281° |
| 2026-04-24 20:35 | 28.89074 | -89.51858 | 39922 ft | 379 kts | 281° |
| 2026-04-24 20:35 | 28.89780 | -89.57814 | 39925 ft | 378 kts | 281° |
| 2026-04-24 20:36 | 28.90470 | -89.63711 | 39921 ft | 377 kts | 281° |
| 2026-04-24 20:36 | 28.91170 | -89.69650 | 39922 ft | 378 kts | 281° |
| 2026-04-24 20:37 | 28.91870 | -89.75603 | 39914 ft | 379 kts | 281° |
| 2026-04-24 20:37 | 28.92568 | -89.81565 | 39916 ft | 379 kts | 281° |
| 2026-04-24 20:38 | 28.93264 | -89.87526 | 39920 ft | 379 kts | 281° |
| 2026-04-24 20:38 | 28.93954 | -89.93495 | 39921 ft | 379 kts | 281° |
| 2026-04-24 20:39 | 28.94644 | -89.99466 | 39911 ft | 379 kts | 281° |
| 2026-04-24 20:39 | 28.95327 | -90.05420 | 39902 ft | 377 kts | 281° |
| 2026-04-24 20:40 | 28.96006 | -90.11350 | 39921 ft | 377 kts | 281° |
| 2026-04-24 20:40 | 28.96683 | -90.17282 | 39911 ft | 377 kts | 281° |
| 2026-04-24 20:41 | 28.97358 | -90.23223 | 39910 ft | 377 kts | 281° |
| 2026-04-24 20:41 | 28.98031 | -90.29169 | 39910 ft | 378 kts | 281° |
| 2026-04-24 20:42 | 28.98696 | -90.35078 | 39911 ft | 378 kts | 281° |
| 2026-04-24 20:42 | 28.99364 | -90.41026 | 39913 ft | 377 kts | 281° |
| 2026-04-24 20:43 | 29.00028 | -90.46966 | 39905 ft | 377 kts | 280° |
| 2026-04-24 20:43 | 29.00688 | -90.52898 | 39906 ft | 376 kts | 280° |
| 2026-04-24 20:44 | 29.01345 | -90.58825 | 39907 ft | 376 kts | 280° |
| 2026-04-24 20:44 | 29.01999 | -90.64750 | 39908 ft | 376 kts | 280° |
| 2026-04-24 20:45 | 29.02651 | -90.70675 | 39905 ft | 376 kts | 280° |
| 2026-04-24 20:45 | 29.03301 | -90.76592 | 39865 ft | 375 kts | 280° |
| 2026-04-24 20:46 | 29.03944 | -90.82492 | 39890 ft | 374 kts | 280° |
| 2026-04-24 20:46 | 29.04588 | -90.88392 | 39905 ft | 374 kts | 280° |
| 2026-04-24 20:47 | 29.05222 | -90.94299 | 39901 ft | 375 kts | 280° |
| 2026-04-24 20:47 | 29.05855 | -91.00201 | 39902 ft | 374 kts | 280° |
| 2026-04-24 20:48 | 29.06486 | -91.06093 | 39901 ft | 374 kts | 280° |
| 2026-04-24 20:48 | 29.07119 | -91.11999 | 39895 ft | 375 kts | 280° |
| 2026-04-24 20:49 | 29.07637 | -91.16907 | 39892 ft | 374 kts | 280° |
| 2026-04-24 20:49 | 29.08264 | -91.22817 | 39721 ft | 377 kts | 280° |
| 2026-04-24 20:50 | 29.08580 | -91.25790 | 39481 ft | 376 kts | 280° |
| 2026-04-24 20:50 | 29.08892 | -91.28739 | 39241 ft | 373 kts | 280° |
| 2026-04-24 20:50 | 29.09201 | -91.31679 | 39013 ft | 372 kts | 280° |
| 2026-04-24 20:50 | 29.09509 | -91.34607 | 38792 ft | 371 kts | 280° |
| 2026-04-24 20:51 | 29.09816 | -91.37534 | 38551 ft | 370 kts | 280° |
| 2026-04-24 20:51 | 29.10122 | -91.40452 | 38282 ft | 370 kts | 280° |
| 2026-04-24 20:51 | 29.10427 | -91.43376 | 38019 ft | 371 kts | 280° |
| 2026-04-24 20:51 | 29.10730 | -91.46309 | 37748 ft | 372 kts | 280° |
| 2026-04-24 20:52 | 29.11036 | -91.49254 | 37484 ft | 374 kts | 280° |
| 2026-04-24 20:52 | 29.11344 | -91.52208 | 37220 ft | 375 kts | 280° |
| 2026-04-24 20:52 | 29.11652 | -91.55181 | 36960 ft | 377 kts | 279° |
| 2026-04-24 20:52 | 29.11961 | -91.58165 | 36703 ft | 379 kts | 279° |
| 2026-04-24 20:53 | 29.12270 | -91.61166 | 36450 ft | 381 kts | 279° |
| 2026-04-24 20:53 | 29.12580 | -91.64182 | 36211 ft | 382 kts | 280° |
| 2026-04-24 20:53 | 29.12891 | -91.67210 | 35967 ft | 384 kts | 279° |
| 2026-04-24 20:53 | 29.13201 | -91.70248 | 35723 ft | 386 kts | 279° |
| 2026-04-24 20:54 | 29.13509 | -91.73264 | 35483 ft | 387 kts | 279° |
| 2026-04-24 20:54 | 29.13820 | -91.76328 | 35246 ft | 389 kts | 279° |
| 2026-04-24 20:54 | 29.14133 | -91.79408 | 35009 ft | 390 kts | 280° |
| 2026-04-24 20:54 | 29.14446 | -91.82496 | 34769 ft | 392 kts | 280° |
| 2026-04-24 20:55 | 29.14759 | -91.85595 | 34550 ft | 393 kts | 280° |
| 2026-04-24 20:55 | 29.15073 | -91.88707 | 34318 ft | 394 kts | 280° |
| 2026-04-24 20:55 | 29.15387 | -91.91829 | 34072 ft | 396 kts | 279° |
| 2026-04-24 20:55 | 29.15701 | -91.94961 | 33840 ft | 397 kts | 279° |
| 2026-04-24 20:56 | 29.16015 | -91.98103 | 33574 ft | 399 kts | 279° |
| 2026-04-24 20:56 | 29.16331 | -92.01258 | 33303 ft | 400 kts | 279° |
| 2026-04-24 20:56 | 29.16647 | -92.04429 | 33050 ft | 402 kts | 279° |
| 2026-04-24 20:56 | 29.16964 | -92.07607 | 32793 ft | 403 kts | 279° |
| 2026-04-24 20:57 | 29.17280 | -92.10797 | 32541 ft | 404 kts | 279° |
| 2026-04-24 20:57 | 29.17597 | -92.14001 | 32288 ft | 406 kts | 279° |
| 2026-04-24 20:57 | 29.17914 | -92.17216 | 32038 ft | 407 kts | 279° |
| 2026-04-24 20:57 | 29.18230 | -92.20435 | 31793 ft | 408 kts | 279° |
| 2026-04-24 20:58 | 29.18547 | -92.23666 | 31550 ft | 410 kts | 279° |
| 2026-04-24 20:58 | 29.18866 | -92.26913 | 31308 ft | 411 kts | 279° |
| 2026-04-24 20:58 | 29.19182 | -92.30166 | 31056 ft | 412 kts | 279° |
| 2026-04-24 20:58 | 29.19500 | -92.33428 | 30816 ft | 413 kts | 279° |
| 2026-04-24 20:59 | 29.19820 | -92.36708 | 30580 ft | 415 kts | 279° |
| 2026-04-24 20:59 | 29.20139 | -92.39995 | 30351 ft | 416 kts | 279° |
| 2026-04-24 20:59 | 29.20459 | -92.43295 | 30118 ft | 418 kts | 279° |
| 2026-04-24 20:59 | 29.20778 | -92.46603 | 29875 ft | 419 kts | 278° |
| 2026-04-24 21:00 | 29.21098 | -92.49928 | 29607 ft | 421 kts | 278° |
| 2026-04-24 21:00 | 29.21417 | -92.53262 | 29333 ft | 422 kts | 278° |
| 2026-04-24 21:00 | 29.21739 | -92.56607 | 29066 ft | 423 kts | 278° |
| 2026-04-24 21:00 | 29.22059 | -92.59960 | 28798 ft | 424 kts | 278° |
| 2026-04-24 21:01 | 29.22378 | -92.63322 | 28559 ft | 425 kts | 278° |
| 2026-04-24 21:01 | 29.22698 | -92.66693 | 28300 ft | 427 kts | 278° |
| 2026-04-24 21:01 | 29.23017 | -92.70071 | 28035 ft | 427 kts | 278° |
| 2026-04-24 21:01 | 29.23337 | -92.73459 | 27779 ft | 428 kts | 278° |
| 2026-04-24 21:02 | 29.23657 | -92.76854 | 27524 ft | 430 kts | 278° |
| 2026-04-24 21:02 | 29.23976 | -92.80258 | 27273 ft | 431 kts | 278° |
| 2026-04-24 21:02 | 29.24296 | -92.83677 | 27024 ft | 433 kts | 278° |
| 2026-04-24 21:02 | 29.24617 | -92.87106 | 26778 ft | 434 kts | 278° |
| 2026-04-24 21:03 | 29.24937 | -92.90549 | 26532 ft | 435 kts | 278° |
| 2026-04-24 21:03 | 29.25258 | -92.94008 | 26291 ft | 438 kts | 277° |
| 2026-04-24 21:03 | 29.25580 | -92.97485 | 26051 ft | 440 kts | 277° |
| 2026-04-24 21:03 | 29.25902 | -93.00976 | 25812 ft | 442 kts | 277° |
| 2026-04-24 21:04 | 29.26224 | -93.04476 | 25583 ft | 443 kts | 277° |
| 2026-04-24 21:04 | 29.26546 | -93.07982 | 25331 ft | 442 kts | 277° |
| 2026-04-24 21:04 | 29.26865 | -93.11478 | 25094 ft | 441 kts | 277° |
| 2026-04-24 21:04 | 29.27183 | -93.14963 | 24861 ft | 439 kts | 277° |
| 2026-04-24 21:05 | 29.27499 | -93.18431 | 24630 ft | 437 kts | 277° |
| 2026-04-24 21:05 | 29.27813 | -93.21890 | 24404 ft | 435 kts | 277° |
| 2026-04-24 21:05 | 29.28120 | -93.25285 | 24179 ft | 434 kts | 277° |
| 2026-04-24 21:05 | 29.28433 | -93.28763 | 23952 ft | 433 kts | 277° |
| 2026-04-24 21:06 | 29.28740 | -93.32183 | 23729 ft | 431 kts | 277° |
| 2026-04-24 21:06 | 29.29045 | -93.35598 | 23517 ft | 430 kts | 277° |
| 2026-04-24 21:06 | 29.29350 | -93.39005 | 23255 ft | 430 kts | 277° |
| 2026-04-24 21:06 | 29.29650 | -93.42366 | 22987 ft | 429 kts | 277° |
| 2026-04-24 21:07 | 29.29953 | -93.45762 | 22736 ft | 429 kts | 277° |
| 2026-04-24 21:07 | 29.30255 | -93.49154 | 22469 ft | 428 kts | 277° |
| 2026-04-24 21:07 | 29.30554 | -93.52541 | 22204 ft | 427 kts | 277° |
| 2026-04-24 21:07 | 29.30851 | -93.55918 | 21947 ft | 425 kts | 277° |
| 2026-04-24 21:08 | 29.31148 | -93.59284 | 21701 ft | 424 kts | 277° |
| 2026-04-24 21:08 | 29.31442 | -93.62641 | 21440 ft | 423 kts | 277° |
| 2026-04-24 21:08 | 29.31734 | -93.65990 | 21194 ft | 422 kts | 277° |
| 2026-04-24 21:08 | 29.32024 | -93.69328 | 20946 ft | 421 kts | 277° |
| 2026-04-24 21:09 | 29.32313 | -93.72657 | 20711 ft | 419 kts | 276° |
| 2026-04-24 21:09 | 29.32600 | -93.75978 | 20457 ft | 419 kts | 276° |
| 2026-04-24 21:09 | 29.32886 | -93.79293 | 20212 ft | 418 kts | 276° |
| 2026-04-24 21:09 | 29.33171 | -93.82600 | 19971 ft | 416 kts | 276° |
| 2026-04-24 21:10 | 29.33455 | -93.85894 | 19732 ft | 415 kts | 276° |
| 2026-04-24 21:10 | 29.33735 | -93.89179 | 19494 ft | 414 kts | 276° |
| 2026-04-24 21:10 | 29.34015 | -93.92455 | 19261 ft | 413 kts | 276° |
| 2026-04-24 21:10 | 29.34293 | -93.95726 | 19029 ft | 412 kts | 276° |
| 2026-04-24 21:11 | 29.34570 | -93.98990 | 18804 ft | 410 kts | 276° |
| 2026-04-24 21:11 | 29.34846 | -94.02242 | 18559 ft | 410 kts | 276° |
| 2026-04-24 21:11 | 29.35120 | -94.05489 | 18347 ft | 409 kts | 276° |
| 2026-04-24 21:11 | 29.35391 | -94.08721 | 18107 ft | 406 kts | 276° |
| 2026-04-24 21:12 | 29.35661 | -94.11941 | 17857 ft | 406 kts | 276° |
| 2026-04-24 21:12 | 29.35931 | -94.15158 | 17586 ft | 405 kts | 276° |
| 2026-04-24 21:12 | 29.36198 | -94.18366 | 17327 ft | 403 kts | 276° |
| 2026-04-24 21:12 | 29.36464 | -94.21563 | 17108 ft | 403 kts | 276° |
| 2026-04-24 21:13 | 29.36728 | -94.24766 | 17057 ft | 405 kts | 276° |
| 2026-04-24 21:13 | 29.36993 | -94.27972 | 17030 ft | 403 kts | 276° |
| 2026-04-24 21:13 | 29.37258 | -94.31167 | 17034 ft | 403 kts | 276° |
| 2026-04-24 21:13 | 29.37521 | -94.34365 | 17030 ft | 403 kts | 276° |
| 2026-04-24 21:14 | 29.37784 | -94.37559 | 17026 ft | 403 kts | 276° |
| 2026-04-24 21:14 | 29.38089 | -94.40754 | 16738 ft | 401 kts | 277° |
| 2026-04-24 21:14 | 29.38421 | -94.43876 | 16482 ft | 388 kts | 278° |
| 2026-04-24 21:14 | 29.38747 | -94.46873 | 16218 ft | 370 kts | 278° |
| 2026-04-24 21:15 | 29.39051 | -94.49695 | 15966 ft | 354 kts | 277° |
| 2026-04-24 21:15 | 29.39343 | -94.52440 | 15707 ft | 340 kts | 277° |
| 2026-04-24 21:15 | 29.39620 | -94.55087 | 15458 ft | 329 kts | 277° |
| 2026-04-24 21:15 | 29.39890 | -94.57681 | 15214 ft | 326 kts | 277° |
| 2026-04-24 21:16 | 29.40157 | -94.60254 | 14977 ft | 324 kts | 277° |
| 2026-04-24 21:16 | 29.40421 | -94.62814 | 14661 ft | 325 kts | 277° |
| 2026-04-24 21:16 | 29.40693 | -94.65415 | 14188 ft | 330 kts | 278° |
| 2026-04-24 21:16 | 29.41292 | -94.67952 | 13829 ft | 329 kts | 291° |
| 2026-04-24 21:17 | 29.42179 | -94.70363 | 13434 ft | 326 kts | 292° |
| 2026-04-24 21:17 | 29.43089 | -94.72727 | 13009 ft | 322 kts | 292° |
| 2026-04-24 21:17 | 29.43987 | -94.75072 | 12557 ft | 318 kts | 292° |
| 2026-04-24 21:17 | 29.44578 | -94.76635 | 12267 ft | 314 kts | 292° |
| 2026-04-24 21:18 | 29.45703 | -94.79647 | 11780 ft | 306 kts | 291° |
| 2026-04-24 21:18 | 29.46524 | -94.81870 | 11440 ft | 299 kts | 291° |
| 2026-04-24 21:18 | 29.47328 | -94.84054 | 11060 ft | 296 kts | 290° |
| 2026-04-24 21:18 | 29.48118 | -94.86202 | 10730 ft | 290 kts | 290° |
| 2026-04-24 21:19 | 29.48894 | -94.88317 | 10358 ft | 286 kts | 290° |
| 2026-04-24 21:19 | 29.49656 | -94.90416 | 10040 ft | 285 kts | 289° |
| 2026-04-24 21:19 | 29.50412 | -94.92522 | 9658 ft | 284 kts | 289° |
| 2026-04-24 21:19 | 29.51164 | -94.94603 | 9270 ft | 281 kts | 289° |
| 2026-04-24 21:20 | 29.52635 | -94.98697 | 8546 ft | 271 kts | 290° |
| 2026-04-24 21:20 | 29.53353 | -95.00672 | 8214 ft | 266 kts | 290° |
| 2026-04-24 21:20 | 29.54058 | -95.02620 | 7905 ft | 265 kts | 290° |
| 2026-04-24 21:21 | 29.54764 | -95.04579 | 7584 ft | 266 kts | 290° |
| 2026-04-24 21:21 | 29.55476 | -95.06553 | 7259 ft | 268 kts | 290° |
| 2026-04-24 21:21 | 29.56189 | -95.08531 | 6948 ft | 269 kts | 290° |
| 2026-04-24 21:21 | 29.56904 | -95.10513 | 6617 ft | 267 kts | 290° |
| 2026-04-24 21:22 | 29.57787 | -95.12371 | 6241 ft | 267 kts | 309° |
| 2026-04-24 21:22 | 29.59183 | -95.13786 | 5577 ft | 270 kts | 320° |
| 2026-04-24 21:22 | 29.60712 | -95.15079 | 4873 ft | 275 kts | 321° |
| 2026-04-24 21:22 | 29.61778 | -95.15877 | 4385 ft | 279 kts | 330° |
| 2026-04-24 21:23 | 29.64355 | -95.16359 | 3525 ft | 287 kts | 7° |
| 2026-04-24 21:23 | 29.66194 | -95.15526 | 2936 ft | 285 kts | 36° |
| 2026-04-24 21:23 | 29.67711 | -95.14071 | 2378 ft | 284 kts | 41° |
| 2026-04-24 21:23 | 29.69182 | -95.12618 | 2116 ft | 273 kts | 41° |
| 2026-04-24 21:24 | 29.70589 | -95.11220 | 2029 ft | 263 kts | 41° |
| 2026-04-24 21:24 | 29.71945 | -95.09879 | 1987 ft | 251 kts | 40° |
| 2026-04-24 21:24 | 29.73428 | -95.08961 | 1980 ft | 237 kts | 9° |
| 2026-04-24 21:24 | 29.74982 | -95.09060 | 2009 ft | 219 kts | 334° |
| 2026-04-24 21:25 | 29.76145 | -95.10080 | 2016 ft | 208 kts | 298° |
| 2026-04-24 21:25 | 29.76547 | -95.11627 | 2014 ft | 204 kts | 263° |
| 2026-04-24 21:25 | 29.76160 | -95.13170 | 1992 ft | 199 kts | 243° |
| 2026-04-24 21:25 | 29.75606 | -95.14561 | 2010 ft | 188 kts | 242° |
| 2026-04-24 21:26 | 29.75072 | -95.15868 | 1986 ft | 180 kts | 238° |
| 2026-04-24 21:26 | 29.74238 | -95.16932 | 2008 ft | 175 kts | 221° |
| 2026-04-24 21:26 | 29.73363 | -95.17902 | 1915 ft | 166 kts | 226° |
| 2026-04-24 21:26 | 29.72619 | -95.18856 | 1826 ft | 157 kts | 226° |
| 2026-04-24 21:27 | 29.71873 | -95.19714 | 1776 ft | 143 kts | 220° |
| 2026-04-24 21:27 | 29.71203 | -95.20450 | 1527 ft | 127 kts | 220° |
| 2026-04-24 21:27 | 29.70559 | -95.21165 | 1322 ft | 131 kts | 221° |
| 2026-04-24 21:27 | 29.70128 | -95.21649 | 1206 ft | 131 kts | 220° |
| 2026-04-24 21:28 | 29.69259 | -95.22627 | 1030 ft | 130 kts | 220° |
| 2026-04-24 21:28 | 29.68589 | -95.23344 | 911 ft | 135 kts | 220° |
| 2026-04-24 21:28 | 29.67902 | -95.24096 | 794 ft | 142 kts | 220° |
| 2026-04-24 21:28 | 29.67179 | -95.24917 | 612 ft | 142 kts | 220° |
| 2026-04-24 21:29 | 29.66493 | -95.25691 | 396 ft | 138 kts | 219° |
| 2026-04-24 21:29 | 29.65799 | -95.26457 | 182 ft | 135 kts | 219° |
| 2026-04-24 21:29 | 29.65116 | -95.27199 | 52 ft | 133 kts | 224° |
| 2026-04-24 21:29 | 29.64601 | -95.27768 | 51 ft | 66 kts | 224° |
| 2026-04-24 21:30 | 29.64381 | -95.28026 | 51 ft | 33 kts | 234° |
| 2026-04-24 21:30 | 29.64327 | -95.28188 | 51 ft | 14 kts | 266° |
| 2026-04-24 21:30 | 29.64330 | -95.28251 | 51 ft | 2 kts | 282° |
| 2026-04-24 21:30 | 29.64334 | -95.28266 | 47 ft | 2 kts | 290° |
| 2026-04-24 21:31 | 29.64340 | -95.28280 | 51 ft | 2 kts | 299° |
| 2026-04-24 21:31 | 29.64350 | -95.28292 | 49 ft | 3 kts | 317° |
| 2026-04-24 21:31 | 29.64384 | -95.28308 | 48 ft | 8 kts | 356° |
| 2026-04-24 21:31 | 29.64445 | -95.28265 | 51 ft | 12 kts | 44° |
| 2026-04-24 21:32 | 29.64509 | -95.28194 | 47 ft | 13 kts | 44° |
| 2026-04-24 21:32 | 29.64572 | -95.28125 | 51 ft | 12 kts | 43° |
| 2026-04-24 21:32 | 29.64634 | -95.28057 | 50 ft | 12 kts | 44° |
| 2026-04-24 21:32 | 29.64694 | -95.27990 | 51 ft | 12 kts | 44° |
| 2026-04-24 21:33 | 29.64752 | -95.27926 | 47 ft | 11 kts | 44° |
| 2026-04-24 21:33 | 29.64790 | -95.27884 | 50 ft | 11 kts | 44° |
| 2026-04-24 21:33 | 29.64865 | -95.27802 | 49 ft | 11 kts | 43° |
| 2026-04-24 21:33 | 29.64919 | -95.27744 | 50 ft | 11 kts | 43° |
| 2026-04-24 21:34 | 29.64971 | -95.27687 | 48 ft | 10 kts | 43° |
| 2026-04-24 21:34 | 29.65032 | -95.27654 | 51 ft | 10 kts | 0° |
| 2026-04-24 21:34 | 29.65100 | -95.27654 | 51 ft | 10 kts | 2° |
| 2026-04-24 21:34 | 29.65166 | -95.27648 | 51 ft | 9 kts | 5° |
| 2026-04-24 21:35 | 29.65211 | -95.27630 | 50 ft | 6 kts | 21° |
| 2026-04-24 21:35 | 29.65235 | -95.27620 | 49 ft | 2 kts | 21° |
| 2026-04-24 21:35 | 29.65244 | -95.27616 | 51 ft | 1 kts | 21° |
| 2026-04-24 21:35 | 29.65245 | -95.27615 | 51 ft | 0 kts | 21° |